createdAt,value
2018-05-23T00:00:44.704Z,54.7
2018-05-23T00:01:34.780Z,54.7
2018-05-23T00:02:24.560Z,54.7
2018-05-23T00:03:14.899Z,54.6
2018-05-23T00:04:04.978Z,54.6
2018-05-23T00:04:55.032Z,54.6
2018-05-23T00:05:45.103Z,54.6
2018-05-23T00:06:34.877Z,54.6
2018-05-23T00:07:24.953Z,54.6
2018-05-23T00:08:15.320Z,54.6
2018-05-23T00:09:05.366Z,54.6
2018-05-23T00:11:56.554Z,54.6
2018-05-23T00:12:06.025Z,54.6
2018-05-23T00:12:56.076Z,54.6
2018-05-23T00:13:46.138Z,54.6
2018-05-23T00:14:35.951Z,54.5
2018-05-23T00:15:26.307Z,54.5
2018-05-23T00:16:16.061Z,54.5
2018-05-23T00:17:06.143Z,54.5
2018-05-23T00:17:56.480Z,54.5
2018-05-23T00:18:46.540Z,54.4
2018-05-23T00:19:36.585Z,54.4
2018-05-23T00:20:26.110Z,54.4
2018-05-23T00:21:16.153Z,54.4
2018-05-23T00:22:06.781Z,54.4
2018-05-23T00:22:56.572Z,54.4
2018-05-23T00:23:46.905Z,54.4
2018-05-23T00:24:36.683Z,54.4
2018-05-23T00:25:27.035Z,54.4
2018-05-23T00:26:16.855Z,54.4
2018-05-23T00:27:06.880Z,54.4
2018-05-23T00:27:57.215Z,54.4
2018-05-23T00:28:47.295Z,54.3
2018-05-23T00:29:37.367Z,54.3
2018-05-23T00:30:27.442Z,54.3
2018-05-23T00:31:17.481Z,54.3
2018-05-23T00:32:07.575Z,54.3
2018-05-23T00:32:57.346Z,54.3
2018-05-23T00:33:47.397Z,54.3
2018-05-23T00:34:37.492Z,54.3
2018-05-23T00:35:27.249Z,54.3
2018-05-23T00:36:17.852Z,54.3
2018-05-23T00:37:07.930Z,54.3
2018-05-23T00:37:57.725Z,54.3
2018-05-23T00:38:48.071Z,54.2
2018-05-23T00:39:37.852Z,54.2
2018-05-23T00:40:28.183Z,54.2
2018-05-23T00:41:18.349Z,54.2
2018-05-23T00:42:08.320Z,54.2
2018-05-23T00:42:58.401Z,54.2
2018-05-23T00:43:48.145Z,54.1
2018-05-23T00:44:38.513Z,54.1
2018-05-23T00:45:28.292Z,54.1
2018-05-23T00:46:18.712Z,54.1
2018-05-23T00:47:08.491Z,54.1
2018-05-23T00:47:58.486Z,54.1
2018-05-23T00:48:48.814Z,54.1
2018-05-23T00:49:38.888Z,54.1
2018-05-23T00:50:28.963Z,54.1
2018-05-23T00:51:18.438Z,54.1
2018-05-23T00:52:09.066Z,54.1
2018-05-23T00:52:58.391Z,54
2018-05-23T00:53:49.213Z,54
2018-05-23T00:54:39.308Z,54
2018-05-23T00:55:29.342Z,54
2018-05-23T00:56:19.396Z,54
2018-05-23T00:57:09.450Z,54
2018-05-23T00:57:59.519Z,54
2018-05-23T00:58:49.306Z,53.9
2018-05-23T00:59:39.648Z,53.9
2018-05-23T01:00:29.717Z,53.9
2018-05-23T01:01:19.502Z,53.9
2018-05-23T01:02:09.560Z,53.9
2018-05-23T01:02:59.905Z,53.9
2018-05-23T01:03:49.978Z,53.9
2018-05-23T01:04:40.028Z,53.9
2018-05-23T01:05:30.089Z,53.9
2018-05-23T01:06:20.181Z,53.9
2018-05-23T01:07:10.225Z,53.9
2018-05-23T01:08:00.013Z,53.9
2018-05-23T01:08:50.060Z,53.8
2018-05-23T01:09:40.407Z,53.8
2018-05-23T01:10:30.473Z,53.8
2018-05-23T01:11:20.535Z,53.8
2018-05-23T01:12:10.605Z,53.8
2018-05-23T01:13:00.682Z,53.8
2018-05-23T01:13:50.496Z,53.8
2018-05-23T01:14:40.840Z,53.8
2018-05-23T01:15:30.886Z,53.8
2018-05-23T01:16:20.941Z,53.8
2018-05-23T01:17:11.075Z,53.8
2018-05-23T01:18:00.786Z,53.7
2018-05-23T01:18:50.853Z,53.7
2018-05-23T01:19:41.178Z,53.7
2018-05-23T01:20:30.971Z,53.7
2018-05-23T01:21:21.016Z,53.7
2018-05-23T01:22:11.374Z,53.7
2018-05-23T01:23:01.432Z,53.7
2018-05-23T01:23:51.216Z,53.6
2018-05-23T01:24:41.561Z,53.6
2018-05-23T01:25:31.071Z,53.6
2018-05-23T01:26:21.699Z,53.6
2018-05-23T01:27:11.774Z,53.6
2018-05-23T01:28:01.544Z,53.6
2018-05-23T01:28:51.596Z,53.6
2018-05-23T01:29:41.942Z,53.6
2018-05-23T01:30:32.014Z,53.6
2018-05-23T01:31:21.807Z,53.6
2018-05-23T01:32:12.136Z,53.6
2018-05-23T01:33:02.200Z,53.5
2018-05-23T01:33:51.997Z,53.5
2018-05-23T01:34:42.068Z,53.5
2018-05-23T01:35:32.399Z,53.5
2018-05-23T01:36:22.199Z,53.5
2018-05-23T01:37:12.596Z,53.5
2018-05-23T01:38:02.584Z,53.5
2018-05-23T01:38:52.363Z,53.5
2018-05-23T01:39:42.730Z,53.4
2018-05-23T01:40:32.774Z,53.4
2018-05-23T01:41:22.565Z,53.4
2018-05-23T01:42:12.890Z,53.4
2018-05-23T01:43:02.696Z,53.4
2018-05-23T01:43:53.015Z,53.4
2018-05-23T01:44:42.829Z,53.4
2018-05-23T01:45:33.143Z,53.4
2018-05-23T01:46:23.247Z,53.4
2018-05-23T01:47:13.279Z,53.4
2018-05-23T01:48:03.058Z,53.4
2018-05-23T01:48:53.444Z,53.4
2018-05-23T01:49:43.462Z,53.3
2018-05-23T01:50:32.955Z,53.3
2018-05-23T01:51:23.614Z,53.3
2018-05-23T01:52:13.641Z,53.3
2018-05-23T01:53:03.696Z,53.3
2018-05-23T01:53:53.774Z,53.3
2018-05-23T01:54:43.848Z,53.3
2018-05-23T01:55:33.896Z,53.3
2018-05-23T01:56:23.968Z,53.3
2018-05-23T01:57:14.019Z,53.3
2018-05-23T01:58:03.824Z,53.3
2018-05-23T01:58:54.161Z,53.3
2018-05-23T01:59:44.227Z,53.3
2018-05-23T02:00:34.282Z,53.2
2018-05-23T02:01:24.351Z,53.2
2018-05-23T02:02:14.406Z,53.2
2018-05-23T02:03:04.192Z,53.2
2018-05-23T02:03:54.554Z,53.1
2018-05-23T02:04:44.611Z,53.1
2018-05-23T02:05:34.389Z,53.2
2018-05-23T02:06:24.753Z,53.1
2018-05-23T02:07:14.513Z,53.1
2018-05-23T02:08:04.841Z,53.1
2018-05-23T02:08:54.636Z,53.1
2018-05-23T02:09:45.029Z,53.1
2018-05-23T02:10:34.774Z,53.1
2018-05-23T02:11:24.836Z,53.1
2018-05-23T02:12:15.159Z,53.1
2018-05-23T02:13:05.321Z,53.1
2018-05-23T02:13:54.745Z,53.1
2018-05-23T02:14:45.348Z,53
2018-05-23T02:15:35.516Z,53
2018-05-23T02:16:25.491Z,53
2018-05-23T02:17:15.277Z,53
2018-05-23T02:18:05.332Z,53
2018-05-23T02:18:55.383Z,53
2018-05-23T02:19:45.447Z,53
2018-05-23T02:20:35.791Z,53
2018-05-23T02:21:25.879Z,52.9
2018-05-23T02:22:15.935Z,53
2018-05-23T02:23:05.993Z,52.9
2018-05-23T02:23:55.778Z,52.9
2018-05-23T02:24:45.834Z,52.9
2018-05-23T02:25:36.174Z,52.9
2018-05-23T02:26:26.250Z,52.9
2018-05-23T02:27:16.292Z,52.9
2018-05-23T02:28:06.365Z,52.9
2018-05-23T02:28:56.434Z,52.9
2018-05-23T02:29:46.501Z,52.8
2018-05-23T02:30:36.558Z,52.9
2018-05-23T02:31:26.654Z,52.9
2018-05-23T02:32:16.702Z,52.8
2018-05-23T02:33:06.484Z,52.8
2018-05-23T02:33:56.837Z,52.8
2018-05-23T02:34:46.329Z,52.8
2018-05-23T02:35:36.658Z,52.8
2018-05-23T02:36:27.126Z,52.8
2018-05-23T02:37:16.508Z,52.8
2018-05-23T02:38:06.862Z,52.8
2018-05-23T02:38:56.934Z,52.8
2018-05-23T02:39:47.273Z,52.8
2018-05-23T02:40:37.341Z,52.8
2018-05-23T02:41:27.390Z,52.8
2018-05-23T02:42:17.176Z,52.7
2018-05-23T02:43:07.240Z,52.7
2018-05-23T02:43:57.285Z,52.7
2018-05-23T02:44:47.650Z,52.7
2018-05-23T02:45:37.702Z,52.7
2018-05-23T02:46:27.203Z,52.7
2018-05-23T02:47:17.811Z,52.6
2018-05-23T02:48:07.887Z,52.6
2018-05-23T02:48:57.680Z,52.6
2018-05-23T02:49:47.733Z,52.6
2018-05-23T02:50:38.075Z,52.6
2018-05-23T02:51:28.148Z,52.6
2018-05-23T02:52:18.199Z,52.6
2018-05-23T02:53:07.996Z,52.6
2018-05-23T02:53:58.326Z,52.6
2018-05-23T02:54:48.388Z,52.6
2018-05-23T02:55:38.563Z,52.6
2018-05-23T02:56:28.528Z,52.6
2018-05-23T02:57:18.601Z,52.6
2018-05-23T02:58:08.645Z,52.6
2018-05-23T02:58:58.427Z,52.5
2018-05-23T02:59:48.516Z,52.5
2018-05-23T03:00:38.859Z,52.5
2018-05-23T03:01:28.649Z,52.5
2018-05-23T03:02:18.682Z,52.5
2018-05-23T03:03:09.382Z,52.4
2018-05-23T03:03:59.097Z,52.4
2018-05-23T03:04:48.873Z,52.4
2018-05-23T03:05:39.219Z,52.4
2018-05-23T03:06:29.323Z,52.4
2018-05-23T03:07:19.057Z,52.4
2018-05-23T03:08:09.139Z,52.4
2018-05-23T03:09:49.545Z,52.4
2018-05-23T03:14:49.927Z,52.3
2018-05-23T03:15:40.001Z,52.3
2018-05-23T03:16:30.042Z,52.3
2018-05-23T03:17:20.124Z,52.3
2018-05-23T03:18:10.264Z,52.3
2018-05-23T03:19:00.229Z,52.3
2018-05-23T03:19:50.040Z,52.3
2018-05-23T03:20:40.366Z,52.3
2018-05-23T03:21:30.421Z,52.3
2018-05-23T03:22:20.217Z,52.3
2018-05-23T03:23:10.550Z,52.3
2018-05-23T03:24:00.622Z,52.3
2018-05-23T03:24:50.678Z,52.3
2018-05-23T03:25:40.884Z,52.2
2018-05-23T03:26:30.823Z,52.2
2018-05-23T03:27:20.600Z,52.1
2018-05-23T03:28:10.937Z,52.1
2018-05-23T03:29:01.072Z,52.1
2018-05-23T03:29:50.795Z,52.1
2018-05-23T03:30:41.120Z,52
2018-05-23T03:31:31.197Z,52
2018-05-23T03:32:21.258Z,52
2018-05-23T03:33:11.322Z,52
2018-05-23T03:34:01.377Z,52
2018-05-23T03:39:01.503Z,51.9
2018-05-23T03:39:51.836Z,51.9
2018-05-23T03:40:41.613Z,51.9
2018-05-23T03:41:31.948Z,51.9
2018-05-23T03:42:22.009Z,51.9
2018-05-23T03:43:12.073Z,51.9
2018-05-23T03:44:02.231Z,51.9
2018-05-23T03:44:51.921Z,51.8
2018-05-23T03:45:42.272Z,51.8
2018-05-23T03:46:32.338Z,51.8
2018-05-23T03:47:22.428Z,51.8
2018-05-23T03:48:12.184Z,51.8
2018-05-23T03:49:02.238Z,51.8
2018-05-23T03:49:52.312Z,51.8
2018-05-23T03:50:42.362Z,51.8
2018-05-23T03:51:32.762Z,51.8
2018-05-23T03:52:22.756Z,51.8
2018-05-23T03:53:12.660Z,51.8
2018-05-23T03:54:02.634Z,51.8
2018-05-23T03:54:52.980Z,51.7
2018-05-23T03:55:42.749Z,51.7
2018-05-23T03:56:33.105Z,51.7
2018-05-23T03:57:22.584Z,51.7
2018-05-23T03:58:12.952Z,51.7
2018-05-23T03:59:03.308Z,51.7
2018-05-23T03:59:52.789Z,51.6
2018-05-23T04:00:43.418Z,51.7
2018-05-23T04:01:33.204Z,51.6
2018-05-23T04:02:23.268Z,51.6
2018-05-23T04:03:13.613Z,51.6
2018-05-23T04:04:03.378Z,51.6
2018-05-23T04:04:54.116Z,51.6
2018-05-23T04:05:43.818Z,51.6
2018-05-23T04:06:33.860Z,51.6
2018-05-23T04:07:23.637Z,51.6
2018-05-23T04:08:13.981Z,51.6
2018-05-23T04:09:04.061Z,51.6
2018-05-23T04:09:54.121Z,51.6
2018-05-23T04:10:44.250Z,51.6
2018-05-23T04:11:33.960Z,51.5
2018-05-23T04:12:24.296Z,51.5
2018-05-23T04:13:14.366Z,51.5
2018-05-23T04:14:04.151Z,51.5
2018-05-23T04:14:54.243Z,51.5
2018-05-23T04:15:44.547Z,51.5
2018-05-23T04:16:34.632Z,51.4
2018-05-23T04:17:24.703Z,51.4
2018-05-23T04:18:14.732Z,51.4
2018-05-23T04:19:04.545Z,51.4
2018-05-23T04:19:54.874Z,51.4
2018-05-23T04:20:44.939Z,51.4
2018-05-23T04:21:34.725Z,51.4
2018-05-23T04:22:25.078Z,51.4
2018-05-23T04:23:15.179Z,51.4
2018-05-23T04:24:05.609Z,51.4
2018-05-23T04:24:55.611Z,51.4
2018-05-23T04:25:45.324Z,51.4
2018-05-23T04:26:35.396Z,51.4
2018-05-23T04:27:25.468Z,51.3
2018-05-23T04:28:15.549Z,51.3
2018-05-23T04:29:05.583Z,51.3
2018-05-23T04:29:55.647Z,51.3
2018-05-23T04:30:45.710Z,51.3
2018-05-23T04:31:35.777Z,51.3
2018-05-23T04:32:25.853Z,51.3
2018-05-23T04:33:15.881Z,51.3
2018-05-23T04:34:05.684Z,51.3
2018-05-23T04:34:55.749Z,51.3
2018-05-23T04:35:46.074Z,51.3
2018-05-23T04:36:36.163Z,51.3
2018-05-23T04:37:26.205Z,51.2
2018-05-23T04:38:16.262Z,51.2
2018-05-23T04:39:06.074Z,51.2
2018-05-23T04:39:56.113Z,51.2
2018-05-23T04:40:46.205Z,51.2
2018-05-23T04:41:36.528Z,51.2
2018-05-23T04:42:26.595Z,51.2
2018-05-23T04:43:16.192Z,51.1
2018-05-23T04:44:06.166Z,51.1
2018-05-23T04:44:56.521Z,51.1
2018-05-23T04:45:46.860Z,51.1
2018-05-23T04:46:36.672Z,51.1
2018-05-23T04:47:26.976Z,51.1
2018-05-23T04:48:16.478Z,51.1
2018-05-23T04:49:07.117Z,51.1
2018-05-23T04:49:57.171Z,51.1
2018-05-23T04:50:47.234Z,51.1
2018-05-23T04:51:37.032Z,51
2018-05-23T04:52:27.365Z,51
2018-05-23T04:53:17.152Z,50.9
2018-05-23T04:54:07.500Z,50.9
2018-05-23T04:54:57.644Z,50.9
2018-05-23T04:55:47.621Z,50.9
2018-05-23T04:56:37.401Z,50.9
2018-05-23T04:57:27.747Z,50.9
2018-05-23T04:58:17.838Z,50.9
2018-05-23T04:59:07.865Z,50.9
2018-05-23T04:59:57.961Z,50.9
2018-05-23T05:00:47.985Z,50.9
2018-05-23T05:01:38.052Z,50.8
2018-05-23T05:02:27.867Z,50.8
2018-05-23T05:03:18.207Z,50.8
2018-05-23T05:04:07.981Z,50.7
2018-05-23T05:04:58.032Z,50.7
2018-05-23T05:05:48.384Z,50.7
2018-05-23T05:06:38.165Z,50.7
2018-05-23T05:07:28.234Z,50.6
2018-05-23T05:08:18.296Z,50.6
2018-05-23T05:09:08.639Z,50.6
2018-05-23T05:09:59.059Z,50.6
2018-05-23T05:10:48.766Z,50.6
2018-05-23T05:11:38.832Z,50.6
2018-05-23T05:12:28.609Z,50.6
2018-05-23T05:13:18.935Z,50.6
2018-05-23T05:14:08.715Z,50.6
2018-05-23T05:14:58.792Z,50.6
2018-05-23T05:15:49.124Z,50.5
2018-05-23T05:16:39.197Z,50.5
2018-05-23T05:17:29.271Z,50.5
2018-05-23T05:18:19.337Z,50.5
2018-05-23T05:19:09.399Z,50.5
2018-05-23T05:19:59.188Z,50.5
2018-05-23T05:20:49.517Z,50.5
2018-05-23T05:21:39.569Z,50.4
2018-05-23T05:22:29.639Z,50.4
2018-05-23T05:23:19.701Z,50.4
2018-05-23T05:24:09.512Z,50.4
2018-05-23T05:25:00.282Z,50.4
2018-05-23T05:25:49.888Z,50.4
2018-05-23T05:26:39.957Z,50.4
2018-05-23T05:27:30.051Z,50.4
2018-05-23T05:28:20.104Z,50.4
2018-05-23T05:29:10.146Z,50.3
2018-05-23T05:30:00.219Z,50.3
2018-05-23T05:30:50.273Z,50.3
2018-05-23T05:31:39.811Z,50.3
2018-05-23T05:32:30.399Z,50.3
2018-05-23T05:33:20.461Z,50.2
2018-05-23T05:34:10.522Z,50.2
2018-05-23T05:35:00.639Z,50.1
2018-05-23T05:35:50.667Z,50.1
2018-05-23T05:36:40.188Z,50.1
2018-05-23T05:37:30.985Z,50.1
2018-05-23T05:38:20.848Z,50.1
2018-05-23T05:39:10.983Z,50.1
2018-05-23T05:40:00.744Z,50
2018-05-23T05:40:50.485Z,50
2018-05-23T05:41:41.125Z,49.9
2018-05-23T05:42:31.179Z,49.9
2018-05-23T05:43:21.332Z,49.9
2018-05-23T05:44:11.289Z,49.9
2018-05-23T05:45:01.369Z,49.9
2018-05-23T05:45:51.431Z,49.9
2018-05-23T05:46:41.476Z,49.9
2018-05-23T05:47:31.544Z,49.9
2018-05-23T05:48:21.611Z,49.9
2018-05-23T05:49:11.415Z,49.8
2018-05-23T05:50:01.734Z,49.8
2018-05-23T05:50:51.804Z,49.8
2018-05-23T05:51:41.584Z,49.8
2018-05-23T05:52:31.935Z,49.8
2018-05-23T05:53:21.748Z,49.8
2018-05-23T05:54:12.052Z,49.8
2018-05-23T05:55:01.857Z,49.8
2018-05-23T05:55:52.199Z,49.8
2018-05-23T05:56:42.246Z,49.8
2018-05-23T05:57:32.326Z,49.8
2018-05-23T05:58:22.369Z,49.8
2018-05-23T05:59:12.436Z,49.8
2018-05-23T06:00:02.220Z,49.8
2018-05-23T06:00:52.578Z,49.8
2018-05-23T06:01:42.349Z,49.7
2018-05-23T06:02:32.690Z,49.7
2018-05-23T06:03:22.765Z,49.7
2018-05-23T06:04:12.295Z,49.7
2018-05-23T06:05:02.900Z,49.7
2018-05-23T06:05:52.964Z,49.7
2018-05-23T06:06:42.729Z,49.7
2018-05-23T06:07:32.816Z,49.6
2018-05-23T06:08:23.152Z,49.6
2018-05-23T06:09:13.209Z,49.6
2018-05-23T06:10:03.225Z,49.6
2018-05-23T06:10:53.335Z,49.6
2018-05-23T06:11:43.141Z,49.6
2018-05-23T06:12:33.476Z,49.6
2018-05-23T06:13:23.530Z,49.6
2018-05-23T06:14:13.596Z,49.6
2018-05-23T06:15:03.739Z,49.6
2018-05-23T06:15:53.805Z,49.6
2018-05-23T06:16:43.521Z,49.6
2018-05-23T06:17:33.564Z,49.5
2018-05-23T06:18:23.911Z,49.5
2018-05-23T06:19:13.966Z,49.5
2018-05-23T06:20:03.753Z,49.5
2018-05-23T06:20:53.545Z,49.5
2018-05-23T06:21:44.176Z,49.5
2018-05-23T06:22:34.240Z,49.5
2018-05-23T06:23:24.022Z,49.5
2018-05-23T06:24:14.347Z,49.4
2018-05-23T06:25:04.422Z,49.4
2018-05-23T06:25:54.535Z,49.4
2018-05-23T06:26:44.547Z,49.4
2018-05-23T06:27:34.425Z,49.4
2018-05-23T06:28:24.719Z,49.4
2018-05-23T06:29:14.466Z,49.4
2018-05-23T06:30:04.516Z,49.4
2018-05-23T06:30:54.600Z,49.4
2018-05-23T06:31:44.937Z,49.4
2018-05-23T06:32:34.448Z,49.4
2018-05-23T06:33:24.805Z,49.4
2018-05-23T06:34:15.136Z,49.4
2018-05-23T06:35:05.185Z,49.3
2018-05-23T06:35:55.257Z,49.3
2018-05-23T06:36:45.304Z,49.3
2018-05-23T06:37:35.372Z,49.3
2018-05-23T06:38:25.445Z,49.3
2018-05-23T06:39:15.512Z,49.3
2018-05-23T06:40:05.296Z,49.3
2018-05-23T06:40:55.632Z,49.3
2018-05-23T06:41:45.724Z,49.3
2018-05-23T06:42:35.781Z,49.3
2018-05-23T06:43:26.012Z,49.3
2018-05-23T06:44:15.895Z,49.3
2018-05-23T06:45:05.977Z,49.2
2018-05-23T06:45:56.040Z,49.3
2018-05-23T06:46:45.562Z,49.2
2018-05-23T06:47:36.149Z,49.2
2018-05-23T06:48:26.243Z,49.2
2018-05-23T06:49:16.019Z,49.2
2018-05-23T06:50:07.017Z,49.2
2018-05-23T06:50:56.426Z,49.2
2018-05-23T06:51:46.491Z,49.1
2018-05-23T06:52:36.601Z,49.1
2018-05-23T06:53:26.484Z,49.1
2018-05-23T06:54:16.661Z,49.1
2018-05-23T06:55:06.473Z,49.1
2018-05-23T06:55:56.802Z,49.1
2018-05-23T06:56:46.873Z,49.1
2018-05-23T06:57:36.935Z,49.1
2018-05-23T06:58:26.708Z,49.1
2018-05-23T06:59:17.063Z,49.1
2018-05-23T07:00:08.761Z,49.1
2018-05-23T07:00:58.550Z,49.1
2018-05-23T07:01:48.890Z,49.1
2018-05-23T07:02:38.680Z,49
2018-05-23T07:03:27.106Z,49
2018-05-23T07:04:16.893Z,49
2018-05-23T07:05:07.511Z,49
2018-05-23T07:05:57.809Z,49
2018-05-23T07:06:48.531Z,49
2018-05-23T07:07:39.045Z,49
2018-05-23T07:08:28.650Z,49
2018-05-23T07:09:19.792Z,48.9
2018-05-23T07:10:09.554Z,48.9
2018-05-23T07:10:57.965Z,48.9
2018-05-23T07:11:47.731Z,48.9
2018-05-23T07:12:38.082Z,48.9
2018-05-23T07:13:29.855Z,48.9
2018-05-23T07:14:20.142Z,48.9
2018-05-23T07:15:10.036Z,48.9
2018-05-23T07:15:59.720Z,48.9
2018-05-23T07:16:50.062Z,48.9
2018-05-23T07:17:40.397Z,48.9
2018-05-23T07:18:30.520Z,48.9
2018-05-23T07:19:20.539Z,48.9
2018-05-23T07:20:10.054Z,48.8
2018-05-23T07:21:00.715Z,48.8
2018-05-23T07:21:50.249Z,48.8
2018-05-23T07:22:40.529Z,48.8
2018-05-23T07:23:30.573Z,48.8
2018-05-23T07:24:20.918Z,48.8
2018-05-23T07:25:10.989Z,48.8
2018-05-23T07:26:01.573Z,48.8
2018-05-23T07:26:51.118Z,48.8
2018-05-23T07:27:40.627Z,48.8
2018-05-23T07:28:31.232Z,48.8
2018-05-23T07:29:21.047Z,48.8
2018-05-23T07:30:11.354Z,48.7
2018-05-23T07:31:01.445Z,48.7
2018-05-23T07:31:52.167Z,48.7
2018-05-23T07:32:41.303Z,48.7
2018-05-23T07:33:31.629Z,48.7
2018-05-23T07:34:21.485Z,48.7
2018-05-23T07:35:11.762Z,48.7
2018-05-23T07:36:01.814Z,48.6
2018-05-23T07:36:51.874Z,48.7
2018-05-23T07:37:41.959Z,48.6
2018-05-23T07:38:32.361Z,48.6
2018-05-23T07:39:22.084Z,48.6
2018-05-23T07:40:11.893Z,48.6
2018-05-23T07:41:02.209Z,48.6
2018-05-23T07:41:52.326Z,48.6
2018-05-23T07:42:42.327Z,48.6
2018-05-23T07:43:31.568Z,48.6
2018-05-23T07:44:22.199Z,48.6
2018-05-23T07:45:12.049Z,48.6
2018-05-23T07:46:02.259Z,48.6
2018-05-23T07:46:52.646Z,48.5
2018-05-23T07:47:42.190Z,48.5
2018-05-23T07:48:32.518Z,48.5
2018-05-23T07:49:22.390Z,48.5
2018-05-23T07:50:12.950Z,48.5
2018-05-23T07:51:02.717Z,48.4
2018-05-23T07:51:52.771Z,48.4
2018-05-23T07:52:42.535Z,48.4
2018-05-23T07:53:33.184Z,48.4
2018-05-23T07:54:22.475Z,48.3
2018-05-23T07:55:13.303Z,48.3
2018-05-23T07:56:03.082Z,48.2
2018-05-23T07:56:53.175Z,48.1
2018-05-23T07:57:43.514Z,48.1
2018-05-23T07:58:32.998Z,48.1
2018-05-23T07:59:23.351Z,48.1
2018-05-23T08:00:13.145Z,48.1
2018-05-23T08:01:03.504Z,48.1
2018-05-23T08:01:53.544Z,48.1
2018-05-23T08:02:43.895Z,48.1
2018-05-23T08:03:33.953Z,48.1
2018-05-23T08:04:24.032Z,48.1
2018-05-23T08:05:13.847Z,48.2
2018-05-23T08:06:03.882Z,48.3
2018-05-23T08:06:54.308Z,48.3
2018-05-23T08:07:44.317Z,48.4
2018-05-23T08:08:34.352Z,48.4
2018-05-23T08:09:24.395Z,48.5
2018-05-23T08:10:14.181Z,48.6
2018-05-23T08:11:04.540Z,48.6
2018-05-23T08:11:54.383Z,48.8
2018-05-23T08:12:44.400Z,48.8
2018-05-23T08:13:34.728Z,48.8
2018-05-23T08:14:24.782Z,48.9
2018-05-23T08:15:14.584Z,48.9
2018-05-23T08:16:04.629Z,49
2018-05-23T08:16:54.472Z,49.1
2018-05-23T08:17:45.059Z,49.1
2018-05-23T08:18:34.843Z,49.2
2018-05-23T08:19:24.659Z,49.3
2018-05-23T08:20:15.306Z,49.3
2018-05-23T08:21:05.325Z,49.4
2018-05-23T08:21:55.361Z,49.5
2018-05-23T08:22:45.472Z,49.6
2018-05-23T08:23:35.531Z,49.6
2018-05-23T08:24:25.422Z,49.7
2018-05-23T08:25:15.062Z,49.8
2018-05-23T08:26:05.442Z,49.8
2018-05-23T08:26:55.489Z,49.9
2018-05-23T08:27:45.815Z,49.9
2018-05-23T08:28:35.887Z,50.1
2018-05-23T08:29:25.411Z,50.1
2018-05-23T08:30:16.120Z,50.2
2018-05-23T08:31:06.088Z,50.3
2018-05-23T08:31:56.155Z,50.3
2018-05-23T08:32:45.920Z,50.4
2018-05-23T08:33:35.423Z,50.4
2018-05-23T08:34:26.035Z,50.5
2018-05-23T08:35:16.400Z,50.6
2018-05-23T08:36:06.211Z,50.6
2018-05-23T08:36:56.530Z,50.6
2018-05-23T08:37:46.304Z,50.8
2018-05-23T08:38:36.360Z,50.8
2018-05-23T08:39:26.225Z,50.8
2018-05-23T08:40:16.788Z,50.9
2018-05-23T08:41:06.568Z,50.9
2018-05-23T08:41:56.640Z,51
2018-05-23T08:42:46.686Z,51
2018-05-23T08:43:36.280Z,51.1
2018-05-23T08:44:27.100Z,51.1
2018-05-23T08:45:17.291Z,51.1
2018-05-23T08:46:08.002Z,51.1
2018-05-23T08:46:57.045Z,51.2
2018-05-23T08:47:47.365Z,51.2
2018-05-23T08:48:37.415Z,51.3
2018-05-23T08:49:26.682Z,51.3
2018-05-23T08:50:17.561Z,51.3
2018-05-23T08:51:07.629Z,51.3
2018-05-23T08:51:57.739Z,51.3
2018-05-23T08:52:47.505Z,51.3
2018-05-23T08:53:37.632Z,51.4
2018-05-23T08:54:27.419Z,51.4
2018-05-23T08:55:17.487Z,51.4
2018-05-23T08:56:08.034Z,51.4
2018-05-23T08:56:58.072Z,51.5
2018-05-23T08:57:47.386Z,51.5
2018-05-23T08:58:37.376Z,51.5
2018-05-23T08:59:28.289Z,51.6
2018-05-23T09:00:18.327Z,51.6
2018-05-23T09:01:08.127Z,51.6
2018-05-23T09:01:58.182Z,51.6
2018-05-23T09:02:48.056Z,51.7
2018-05-23T09:03:38.586Z,51.7
2018-05-23T09:04:28.683Z,51.8
2018-05-23T09:05:18.251Z,51.8
2018-05-23T09:06:08.776Z,51.8
2018-05-23T09:06:58.571Z,51.9
2018-05-23T09:09:29.055Z,52
2018-05-23T09:10:19.109Z,52.1
2018-05-23T09:11:09.197Z,52.1
2018-05-23T09:11:58.687Z,52.1
2018-05-23T09:12:48.766Z,52.2
2018-05-23T09:13:38.839Z,52.3
2018-05-23T09:14:29.185Z,52.3
2018-05-23T09:15:18.666Z,52.3
2018-05-23T09:16:09.181Z,52.3
2018-05-23T09:17:48.958Z,52.4
2018-05-23T09:18:39.271Z,52.4
2018-05-23T09:19:29.566Z,52.5
2018-05-23T09:20:19.914Z,52.6
2018-05-23T09:21:09.959Z,52.6
2018-05-23T09:21:59.763Z,52.6
2018-05-23T09:22:50.073Z,52.7
2018-05-23T09:23:40.163Z,52.7
2018-05-23T09:24:29.939Z,52.8
2018-05-23T09:25:20.422Z,52.8
2018-05-23T09:26:10.335Z,52.9
2018-05-23T09:27:00.137Z,52.9
2018-05-23T09:27:49.930Z,52.9
2018-05-23T09:28:40.524Z,53
2018-05-23T09:29:30.696Z,53
2018-05-23T09:30:20.401Z,53.1
2018-05-23T09:31:09.615Z,53.1
2018-05-23T09:32:00.825Z,53.1
2018-05-23T09:32:50.839Z,53.2
2018-05-23T09:33:40.907Z,53.2
2018-05-23T09:34:30.996Z,53.3
2018-05-23T09:35:21.102Z,53.3
2018-05-23T09:36:11.101Z,53.3
2018-05-23T09:37:00.934Z,53.3
2018-05-23T09:37:50.709Z,53.4
2018-05-23T09:38:41.300Z,53.4
2018-05-23T09:39:31.384Z,53.4
2018-05-23T09:40:20.966Z,53.4
2018-05-23T09:41:09.591Z,53.5
2018-05-23T09:41:59.374Z,53.5
2018-05-23T09:42:49.702Z,53.5
2018-05-23T09:43:39.221Z,53.5
2018-05-23T09:44:29.877Z,53.6
2018-05-23T09:45:19.899Z,53.6
2018-05-23T09:46:09.967Z,53.6
2018-05-23T09:46:59.784Z,53.6
2018-05-23T09:47:50.091Z,53.6
2018-05-23T09:48:40.180Z,53.6
2018-05-23T09:49:29.946Z,53.7
2018-05-23T09:50:20.296Z,53.7
2018-05-23T09:51:10.400Z,53.7
2018-05-23T09:52:00.151Z,53.7
2018-05-23T09:52:50.481Z,53.8
2018-05-23T09:53:40.568Z,53.8
2018-05-23T09:54:30.621Z,53.8
2018-05-23T09:55:20.675Z,53.8
2018-05-23T09:56:10.481Z,53.8
2018-05-23T09:57:00.531Z,53.9
2018-05-23T09:57:52.900Z,53.9
2018-05-23T09:58:42.871Z,53.9
2018-05-23T09:59:32.923Z,53.9
2018-05-23T10:00:22.138Z,53.9
2018-05-23T10:01:12.788Z,54
2018-05-23T10:02:03.220Z,54.1
2018-05-23T10:02:53.159Z,54.1
2018-05-23T10:03:42.967Z,54.1
2018-05-23T10:04:32.737Z,54.1
2018-05-23T10:05:23.352Z,54.2
2018-05-23T10:06:13.171Z,54.2
2018-05-23T10:07:02.941Z,54.3
2018-05-23T10:07:53.394Z,54.3
2018-05-23T10:08:43.357Z,54.4
2018-05-23T10:09:33.152Z,54.4
2018-05-23T10:10:23.787Z,54.4
2018-05-23T10:11:13.826Z,54.5
2018-05-23T10:12:03.896Z,54.6
2018-05-23T10:12:53.932Z,54.6
2018-05-23T10:13:43.754Z,54.7
2018-05-23T10:14:34.077Z,54.8
2018-05-23T10:15:24.137Z,54.8
2018-05-23T10:16:14.187Z,54.9
2018-05-23T10:17:04.285Z,54.9
2018-05-23T10:17:54.347Z,55
2018-05-23T10:18:43.947Z,55.1
2018-05-23T10:19:34.467Z,55.1
2018-05-23T10:20:24.526Z,55.2
2018-05-23T10:21:14.610Z,55.3
2018-05-23T10:22:04.669Z,55.4
2018-05-23T10:22:54.196Z,55.4
2018-05-23T10:23:44.516Z,55.5
2018-05-23T10:24:34.924Z,55.6
2018-05-23T10:25:24.639Z,55.7
2018-05-23T10:26:15.125Z,55.8
2018-05-23T10:27:05.052Z,55.9
2018-05-23T10:27:55.101Z,55.9
2018-05-23T10:28:44.341Z,56
2018-05-23T10:29:34.974Z,56.1
2018-05-23T10:30:25.332Z,56.2
2018-05-23T10:31:14.550Z,56.2
2018-05-23T10:32:05.180Z,56.3
2018-05-23T10:32:54.693Z,56.4
2018-05-23T10:33:45.577Z,56.4
2018-05-23T10:34:35.101Z,56.6
2018-05-23T10:35:25.708Z,56.6
2018-05-23T10:36:15.531Z,56.7
2018-05-23T10:37:05.869Z,56.8
2018-05-23T10:37:55.902Z,56.9
2018-05-23T10:38:45.961Z,57
2018-05-23T10:39:36.027Z,57.1
2018-05-23T10:40:26.114Z,57.1
2018-05-23T10:41:15.313Z,57.2
2018-05-23T10:42:05.966Z,57.3
2018-05-23T10:42:56.308Z,57.3
2018-05-23T10:43:46.081Z,57.4
2018-05-23T10:44:36.148Z,57.5
2018-05-23T10:45:26.511Z,57.6
2018-05-23T10:46:17.302Z,57.7
2018-05-23T10:47:56.117Z,57.8
2018-05-23T10:48:46.481Z,57.9
2018-05-23T10:49:36.840Z,57.9
2018-05-23T10:50:26.590Z,58.1
2018-05-23T10:51:16.096Z,58.1
2018-05-23T10:52:07.500Z,58.2
2018-05-23T10:52:56.501Z,58.3
2018-05-23T10:53:47.129Z,58.3
2018-05-23T10:54:36.945Z,58.4
2018-05-23T10:55:26.699Z,58.4
2018-05-23T10:57:07.920Z,58.6
2018-05-23T10:57:57.220Z,58.7
2018-05-23T10:58:47.576Z,58.8
2018-05-23T10:59:37.599Z,58.9
2018-05-23T11:00:27.410Z,58.9
2018-05-23T11:01:17.447Z,59
2018-05-23T11:02:07.316Z,59.1
2018-05-23T11:02:58.002Z,59.1
2018-05-23T11:03:47.658Z,59.2
2018-05-23T11:04:37.133Z,59.3
2018-05-23T11:05:28.071Z,59.4
2018-05-23T11:06:17.840Z,59.4
2018-05-23T11:07:07.912Z,59.4
2018-05-23T11:07:58.344Z,59.6
2018-05-23T11:08:48.332Z,59.6
2018-05-23T11:09:38.383Z,59.7
2018-05-23T11:10:28.460Z,59.8
2018-05-23T11:11:18.500Z,59.8
2018-05-23T11:12:08.325Z,59.9
2018-05-23T11:12:58.654Z,59.9
2018-05-23T11:13:48.175Z,60
2018-05-23T11:14:38.492Z,60.1
2018-05-23T11:15:27.707Z,60.1
2018-05-23T11:16:18.909Z,60.3
2018-05-23T11:17:08.136Z,60.3
2018-05-23T11:17:58.773Z,60.4
2018-05-23T11:18:48.846Z,60.4
2018-05-23T11:19:39.158Z,60.5
2018-05-23T11:20:29.237Z,60.6
2018-05-23T11:21:19.343Z,60.7
2018-05-23T11:22:09.352Z,60.8
2018-05-23T11:22:59.417Z,60.8
2018-05-23T11:23:49.596Z,60.9